Time;durP1;ratioP1;P1;durP2;ratioP2;P2;SDS_P1;SDS_P2;PMS_P1;PMS_P2;Temp;Humidity;BMP_temperature;BMP_pressure;BME280_temperature;BME280_humidity;BME280_pressure;Samples;Min_cycle;Max_cycle;Signal;HPM_P1;HPM_P2
2023/09/08 00:02:12;;;;;;;113.22;58.83;;;21.70;90.20;;;;;;4928509;28;95313;-78
2023/09/08 00:04:38;;;;;;;111.75;58.90;;;21.70;90.20;;;;;;4931645;28;95120;-79
2023/09/08 00:07:04;;;;;;;112.05;58.97;;;21.70;90.20;;;;;;4930145;28;94358;-80
2023/09/08 00:09:30;;;;;;;112.65;58.88;;;21.70;90.10;;;;;;4931376;28;94218;-78
2023/09/08 00:11:55;;;;;;;114.25;58.83;;;21.70;90.00;;;;;;4929494;28;93864;-81
2023/09/08 00:14:21;;;;;;;114.15;59.22;;;21.70;90.10;;;;;;4925305;28;94975;-81
2023/09/08 00:16:48;;;;;;;111.95;58.63;;;21.60;90.60;;;;;;4919219;28;95276;-83
2023/09/08 00:19:14;;;;;;;111.50;58.58;;;21.70;90.40;;;;;;4920804;28;99845;-76
2023/09/08 00:21:39;;;;;;;112.47;58.58;;;21.60;90.40;;;;;;4930922;28;95116;-77
2023/09/08 00:24:05;;;;;;;112.82;59.20;;;21.60;90.10;;;;;;4932390;28;96548;-81
2023/09/08 00:26:32;;;;;;;113.05;58.75;;;21.60;90.50;;;;;;4927889;28;96501;-81
2023/09/08 00:28:57;;;;;;;111.03;58.78;;;21.60;90.50;;;;;;4933817;28;95207;-81
2023/09/08 00:31:23;;;;;;;111.97;58.70;;;21.60;90.60;;;;;;4934731;28;95417;-78
2023/09/08 00:33:48;;;;;;;113.60;59.30;;;21.50;90.00;;;;;;4914813;28;94553;-80
2023/09/08 00:36:15;;;;;;;114.05;58.72;;;21.50;90.20;;;;;;4934917;28;96556;-79
2023/09/08 00:38:41;;;;;;;113.10;58.60;;;21.50;90.30;;;;;;4931459;28;94580;-78
2023/09/08 00:41:07;;;;;;;111.53;58.75;;;21.50;91.20;;;;;;4943339;28;95822;-80
2023/09/08 00:43:33;;;;;;;113.13;58.72;;;21.50;90.20;;;;;;4937569;28;94090;-80
2023/09/08 00:46:02;;;;;;;111.95;58.45;;;21.50;90.50;;;;;;4929681;28;97097;-81
2023/09/08 00:48:28;;;;;;;111.30;58.22;;;21.50;90.90;;;;;;4887278;28;1146205;-80
2023/09/08 00:50:54;;;;;;;113.07;58.22;;;21.40;90.90;;;;;;4924722;28;95444;-80
2023/09/08 00:53:21;;;;;;;112.20;59.03;;;21.40;90.70;;;;;;4926326;28;95330;-82
2023/09/08 00:55:48;;;;;;;110.30;58.15;;;21.40;91.00;;;;;;4925354;28;95794;-79
2023/09/08 00:58:14;;;;;;;112.63;58.92;;;21.40;90.90;;;;;;4939264;28;94361;-82
2023/09/08 01:00:39;;;;;;;113.60;58.80;;;21.40;90.50;;;;;;4916055;28;94468;-80
2023/09/08 01:03:05;;;;;;;111.32;58.80;;;21.30;90.70;;;;;;4928013;28;94474;-80
2023/09/08 01:05:32;;;;;;;113.13;58.83;;;21.30;90.70;;;;;;4932724;28;95734;-77
2023/09/08 01:07:59;;;;;;;112.30;58.63;;;21.30;91.00;;;;;;4927592;28;94802;-78
2023/09/08 01:10:25;;;;;;;113.25;58.97;;;21.30;90.90;;;;;;4928528;28;93942;-78
2023/09/08 01:12:50;;;;;;;112.25;58.80;;;21.30;90.40;;;;;;4935970;28;95524;-77
2023/09/08 01:15:16;;;;;;;112.10;58.97;;;21.30;90.70;;;;;;4936377;28;96183;-76
2023/09/08 01:17:42;;;;;;;114.03;58.67;;;21.30;91.10;;;;;;4937021;28;94601;-81
2023/09/08 01:20:33;;;;;;;111.03;59.08;;;21.30;91.00;;;;;;4932536;28;95040;-79
2023/09/08 01:23:33;;;;;;;114.28;59.08;;;21.30;90.80;;;;;;4926000;28;95686;-79
2023/09/08 01:26:09;;;;;;;112.78;58.45;;;21.20;90.80;;;;;;4917327;28;98697;-83
2023/09/08 01:28:36;;;;;;;111.75;58.67;;;21.30;91.10;;;;;;4933992;28;95286;-82
2023/09/08 01:31:02;;;;;;;110.50;57.90;;;21.20;91.10;;;;;;4933465;28;95587;-81
2023/09/08 01:33:27;;;;;;;112.18;59.00;;;21.20;91.20;;;;;;4929602;28;93431;-79
2023/09/08 01:35:53;;;;;;;111.32;58.85;;;21.20;90.80;;;;;;4930684;28;95100;-80
2023/09/08 01:38:22;;;;;;;111.45;58.72;;;21.20;91.10;;;;;;4924396;28;94979;-80
2023/09/08 01:40:47;;;;;;;112.20;58.90;;;21.10;91.20;;;;;;4938793;28;95538;-81
2023/09/08 01:43:13;;;;;;;111.65;59.05;;;21.20;91.10;;;;;;4929143;28;97652;-77
2023/09/08 01:45:38;;;;;;;111.30;58.72;;;21.20;91.00;;;;;;4912619;28;96386;-76
2023/09/08 01:48:04;;;;;;;112.20;59.30;;;21.20;91.30;;;;;;4915205;28;94928;-78
2023/09/08 01:50:30;;;;;;;112.30;59.05;;;21.10;90.90;;;;;;4932242;28;97113;-82
2023/09/08 01:52:56;;;;;;;111.70;59.58;;;21.10;90.80;;;;;;4913444;28;94639;-82
2023/09/08 01:55:21;;;;;;;111.95;59.08;;;21.10;90.80;;;;;;4927578;28;100012;-83
2023/09/08 01:57:47;;;;;;;110.63;58.97;;;21.10;91.60;;;;;;4930389;28;94178;-82
2023/09/08 02:00:13;;;;;;;111.95;58.92;;;21.10;91.60;;;;;;4932581;28;94744;-83
2023/09/08 02:02:39;;;;;;;111.03;58.63;;;21.10;91.60;;;;;;4928783;28;95070;-77
2023/09/08 02:05:05;;;;;;;111.22;58.83;;;21.10;92.20;;;;;;4934874;28;100086;-82
2023/09/08 02:07:31;;;;;;;111.57;59.08;;;21.10;91.80;;;;;;4931027;28;96409;-81
2023/09/08 02:09:57;;;;;;;111.55;58.38;;;21.00;91.40;;;;;;4915620;28;94517;-77
2023/09/08 02:12:22;;;;;;;112.72;59.30;;;21.00;91.10;;;;;;4926542;28;94556;-76
2023/09/08 02:14:48;;;;;;;111.10;59.58;;;21.00;91.20;;;;;;4920814;28;94732;-79
2023/09/08 02:17:14;;;;;;;112.20;59.28;;;21.00;90.90;;;;;;4930176;28;95364;-81
2023/09/08 02:19:39;;;;;;;111.43;59.22;;;21.00;91.50;;;;;;4931296;28;96102;-80
2023/09/08 02:22:05;;;;;;;111.00;59.03;;;21.00;91.30;;;;;;4933315;28;94529;-79
2023/09/08 02:24:31;;;;;;;112.82;58.60;;;20.90;91.50;;;;;;4927128;28;95262;-81
2023/09/08 02:26:56;;;;;;;112.13;59.55;;;20.90;91.40;;;;;;4931622;28;94367;-80
2023/09/08 02:29:22;;;;;;;110.10;58.50;;;20.90;91.40;;;;;;4918995;28;95693;-82
2023/09/08 02:31:48;;;;;;;111.13;58.85;;;20.90;91.40;;;;;;4922335;28;96516;-78
2023/09/08 02:34:14;;;;;;;111.65;59.10;;;20.90;91.90;;;;;;4926456;28;95443;-79
2023/09/08 02:36:39;;;;;;;112.70;59.45;;;20.90;91.40;;;;;;4920632;28;94441;-81
2023/09/08 02:39:05;;;;;;;112.50;58.80;;;20.90;91.20;;;;;;4935994;28;94255;-81
2023/09/08 02:41:31;;;;;;;110.65;58.83;;;20.80;91.10;;;;;;4927224;28;94331;-79
2023/09/08 02:43:56;;;;;;;113.57;59.30;;;20.80;91.90;;;;;;4934975;28;99517;-81
2023/09/08 02:46:22;;;;;;;110.88;59.33;;;20.80;91.50;;;;;;4912361;28;94617;-82
2023/09/08 02:48:48;;;;;;;112.82;59.53;;;20.80;91.70;;;;;;4915835;28;95401;-83
2023/09/08 02:51:13;;;;;;;112.15;59.80;;;20.80;91.60;;;;;;4925876;28;94395;-80
2023/09/08 02:53:39;;;;;;;113.53;59.13;;;20.80;91.30;;;;;;4924171;28;96227;-80
2023/09/08 02:56:09;;;;;;;112.82;59.80;;;20.80;91.30;;;;;;4914499;28;97776;-77
2023/09/08 02:58:35;;;;;;;112.68;59.53;;;20.70;91.40;;;;;;4935067;28;95334;-82
2023/09/08 03:01:14;;;;;;;112.97;59.25;;;20.70;91.70;;;;;;4932773;28;94600;-83
2023/09/08 03:03:43;;;;;;;112.78;59.28;;;20.70;91.40;;;;;;4934729;28;95591;-78
2023/09/08 03:06:09;;;;;;;111.28;59.28;;;20.70;91.90;;;;;;4932237;28;95549;-78
2023/09/08 03:08:36;;;;;;;111.60;58.80;;;20.70;91.90;;;;;;4915436;28;94942;-80
2023/09/08 03:11:03;;;;;;;111.88;59.03;;;20.70;91.90;;;;;;4926268;28;94002;-82
2023/09/08 03:13:29;;;;;;;110.93;59.05;;;20.60;91.70;;;;;;4922040;28;95487;-77
2023/09/08 03:15:56;;;;;;;110.80;59.03;;;20.70;91.60;;;;;;4937108;28;95570;-82
2023/09/08 03:18:22;;;;;;;109.88;58.47;;;20.60;91.80;;;;;;4927364;28;98242;-79
2023/09/08 03:20:51;;;;;;;109.88;58.47;;;20.60;92.10;;;;;;4922420;28;94858;-80
2023/09/08 03:23:16;;;;;;;111.45;59.60;;;20.60;92.20;;;;;;4909753;28;96767;-79
2023/09/08 03:25:43;;;;;;;110.80;58.53;;;20.60;92.10;;;;;;4928480;28;94383;-77
2023/09/08 03:28:08;;;;;;;111.30;58.97;;;20.60;92.00;;;;;;4941538;28;94662;-78
2023/09/08 03:30:34;;;;;;;111.57;58.75;;;20.60;91.70;;;;;;4939167;28;94981;-79
2023/09/08 03:32:59;;;;;;;112.15;59.17;;;20.60;92.10;;;;;;4922761;28;96411;-82
2023/09/08 03:35:25;;;;;;;110.65;58.95;;;20.60;91.70;;;;;;4912843;28;94258;-78
2023/09/08 03:37:50;;;;;;;112.07;59.03;;;20.60;91.50;;;;;;4932815;28;94977;-81
2023/09/08 03:40:16;;;;;;;110.07;58.72;;;20.50;91.90;;;;;;4934232;28;94422;-81
2023/09/08 03:42:42;;;;;;;110.88;58.75;;;20.60;92.00;;;;;;4928675;28;100264;-77
2023/09/08 03:45:08;;;;;;;110.50;58.75;;;20.50;91.90;;;;;;4928966;28;96142;-80
2023/09/08 03:47:34;;;;;;;110.57;59.08;;;20.50;91.90;;;;;;4909542;28;96034;-80
2023/09/08 03:50:00;;;;;;;111.40;58.88;;;20.50;91.60;;;;;;4913806;28;94920;-82
2023/09/08 03:52:26;;;;;;;110.50;58.80;;;20.50;91.90;;;;;;4904362;28;95177;-79
2023/09/08 03:54:51;;;;;;;110.88;59.10;;;20.50;91.80;;;;;;4909102;28;95171;-77
2023/09/08 03:57:17;;;;;;;113.20;59.13;;;20.50;91.90;;;;;;4905979;28;98637;-78
2023/09/08 03:59:43;;;;;;;110.18;58.90;;;20.40;92.00;;;;;;4909752;28;94120;-81
2023/09/08 04:02:08;;;;;;;109.97;58.53;;;20.40;91.70;;;;;;4906690;28;95414;-78
2023/09/08 04:04:34;;;;;;;111.68;59.22;;;20.40;91.90;;;;;;4913763;28;96856;-77
2023/09/08 04:06:59;;;;;;;110.20;58.78;;;20.40;92.00;;;;;;4901506;28;96825;-79
2023/09/08 04:09:25;;;;;;;110.22;58.72;;;20.40;92.20;;;;;;4911645;28;94303;-79
2023/09/08 04:11:51;;;;;;;112.28;59.17;;;20.40;92.10;;;;;;4908487;28;96041;-78
2023/09/08 04:14:16;;;;;;;109.85;58.60;;;20.40;92.10;;;;;;4910070;28;94160;-79
2023/09/08 04:16:42;;;;;;;109.38;58.22;;;20.40;92.20;;;;;;4913257;28;94172;-80
2023/09/08 04:19:08;;;;;;;113.22;59.45;;;20.40;92.00;;;;;;4915982;28;96144;-77
2023/09/08 04:21:34;;;;;;;110.68;58.90;;;20.30;92.20;;;;;;4901363;28;97784;-81
2023/09/08 04:23:59;;;;;;;109.60;58.58;;;20.30;92.30;;;;;;4905255;28;96084;-82
2023/09/08 04:26:25;;;;;;;111.28;59.38;;;20.30;92.70;;;;;;4928274;28;94730;-78
2023/09/08 04:28:50;;;;;;;113.50;59.35;;;20.30;92.40;;;;;;4892513;28;95971;-81
2023/09/08 04:31:18;;;;;;;111.63;59.65;;;20.30;92.20;;;;;;4913077;28;97237;-79
2023/09/08 04:33:43;;;;;;;112.30;58.95;;;20.30;92.20;;;;;;4908488;28;97449;-81
2023/09/08 04:36:10;;;;;;;110.25;58.90;;;20.30;92.40;;;;;;4907938;28;94712;-76
2023/09/08 04:38:36;;;;;;;110.93;58.90;;;20.30;92.60;;;;;;4909111;28;94858;-77
2023/09/08 04:41:02;;;;;;;111.00;58.83;;;20.30;92.80;;;;;;4904197;28;94291;-81
2023/09/08 04:43:27;;;;;;;111.15;58.97;;;20.30;92.40;;;;;;4906832;28;95823;-80
2023/09/08 04:45:53;;;;;;;111.32;59.20;;;20.20;92.40;;;;;;4916214;28;94267;-81
2023/09/08 04:48:18;;;;;;;112.05;58.65;;;20.30;93.40;;;;;;4914424;28;93739;-79
2023/09/08 04:50:44;;;;;;;110.78;58.58;;;20.30;93.30;;;;;;4913148;28;95131;-78
2023/09/08 04:53:10;;;;;;;113.43;59.63;;;20.30;93.40;;;;;;4908223;28;95346;-76
2023/09/08 04:55:35;;;;;;;114.47;59.38;;;20.30;93.40;;;;;;4914818;28;95961;-77
2023/09/08 04:58:01;;;;;;;118.03;60.30;;;20.30;93.30;;;;;;4900609;28;95162;-74
2023/09/08 05:00:26;;;;;;;115.07;60.67;;;20.20;93.40;;;;;;4898236;28;99318;-81
2023/09/08 05:02:52;;;;;;;115.30;60.40;;;20.20;93.10;;;;;;4905875;28;95542;-77
2023/09/08 05:05:17;;;;;;;119.60;60.90;;;20.20;93.30;;;;;;4906248;28;95682;-77
2023/09/08 05:07:44;;;;;;;122.15;61.65;;;20.20;93.90;;;;;;4883088;28;98860;-75
2023/09/08 05:10:09;;;;;;;115.90;60.95;;;20.20;93.60;;;;;;4906399;28;98837;-76
2023/09/08 05:12:38;;;;;;;117.75;60.90;;;20.20;92.90;;;;;;4885686;28;95364;-80
2023/09/08 05:15:10;;;;;;;118.57;60.90;;;20.10;92.70;;;;;;4899254;28;95588;-75
2023/09/08 05:17:35;;;;;;;122.00;62.20;;;20.10;93.50;;;;;;4906550;28;94813;-77
2023/09/08 05:20:02;;;;;;;126.75;62.50;;;20.20;95.90;;;;;;4896980;28;96684;-79
2023/09/08 05:22:28;;;;;;;124.07;62.35;;;20.20;96.00;;;;;;4913753;28;95505;-75
2023/09/08 05:24:53;;;;;;;122.07;63.13;;;20.30;95.90;;;;;;4912336;28;97437;-76
2023/09/08 05:27:19;;;;;;;130.25;64.00;;;20.30;96.10;;;;;;4893297;28;94889;-78
2023/09/08 05:29:45;;;;;;;124.15;62.72;;;20.30;96.00;;;;;;4891828;28;96768;-76
2023/09/08 05:32:10;;;;;;;133.10;65.00;;;20.30;95.90;;;;;;4913888;28;95347;-79
2023/09/08 05:34:36;;;;;;;131.65;65.65;;;20.30;96.20;;;;;;4899211;28;95118;-75
2023/09/08 05:37:02;;;;;;;128.45;64.55;;;20.30;96.50;;;;;;4886325;28;94133;-75
2023/09/08 05:39:28;;;;;;;125.93;63.72;;;20.30;96.50;;;;;;4905774;28;94797;-82
2023/09/08 05:41:53;;;;;;;130.77;65.85;;;20.20;96.30;;;;;;4895012;28;96048;-78
2023/09/08 05:44:19;;;;;;;132.60;65.25;;;20.30;96.50;;;;;;4907199;28;100277;-78
2023/09/08 05:46:45;;;;;;;133.15;64.18;;;20.30;96.30;;;;;;4870458;28;97582;-77
2023/09/08 05:49:11;;;;;;;113.97;59.95;;;20.30;96.40;;;;;;4900064;28;98680;-78
2023/09/08 05:51:36;;;;;;;116.38;61.15;;;20.20;93.00;;;;;;4903405;28;96804;-80
2023/09/08 05:54:02;;;;;;;116.30;60.80;;;20.10;92.70;;;;;;4918876;28;96441;-81
2023/09/08 05:56:33;;;;;;;117.45;61.00;;;20.10;92.70;;;;;;4903656;28;94726;-81
2023/09/08 05:58:58;;;;;;;115.75;60.78;;;20.10;93.10;;;;;;4900047;28;95292;-81
2023/09/08 06:01:24;;;;;;;117.10;60.75;;;20.10;92.70;;;;;;4912791;28;94266;-79
2023/09/08 06:03:50;;;;;;;114.32;60.13;;;20.10;92.60;;;;;;4907112;28;95537;-81
2023/09/08 06:06:15;;;;;;;116.57;60.63;;;20.10;92.80;;;;;;4903117;28;95191;-80
2023/09/08 06:08:41;;;;;;;117.00;61.45;;;20.10;93.00;;;;;;4905062;28;97133;-79
2023/09/08 06:11:07;;;;;;;116.22;60.58;;;20.10;93.20;;;;;;4918062;28;98343;-81
2023/09/08 06:13:33;;;;;;;118.57;61.25;;;20.10;92.90;;;;;;4901990;28;94637;-80
2023/09/08 06:15:58;;;;;;;117.03;61.53;;;20.10;93.20;;;;;;4919529;28;96245;-79
2023/09/08 06:18:25;;;;;;;117.40;61.30;;;20.10;93.20;;;;;;4913769;28;96497;-79
2023/09/08 06:20:52;;;;;;;119.53;61.88;;;20.20;93.00;;;;;;4917887;28;97717;-81
2023/09/08 06:23:20;;;;;;;115.45;60.30;;;20.10;93.60;;;;;;4908770;28;94411;-81
2023/09/08 06:25:45;;;;;;;120.35;61.22;;;20.20;93.30;;;;;;4912337;28;94298;-79
2023/09/08 06:28:11;;;;;;;119.07;61.28;;;20.20;93.30;;;;;;4903529;28;95349;-80
2023/09/08 06:30:37;;;;;;;121.43;61.75;;;20.20;93.10;;;;;;4901063;28;94745;-78
2023/09/08 06:33:02;;;;;;;121.25;62.38;;;20.30;93.60;;;;;;4917840;28;96082;-80
2023/09/08 06:35:30;;;;;;;115.90;62.15;;;20.30;93.60;;;;;;4913795;28;96809;-78
2023/09/08 06:37:57;;;;;;;116.90;61.03;;;20.30;93.40;;;;;;4912483;28;98065;-78
2023/09/08 06:40:23;;;;;;;120.55;62.17;;;20.30;92.70;;;;;;4903154;28;97305;-81
2023/09/08 06:42:48;;;;;;;119.72;61.88;;;20.30;93.60;;;;;;4906122;28;95169;-80
2023/09/08 06:45:14;;;;;;;116.90;61.03;;;20.30;93.20;;;;;;4905536;28;94378;-80
2023/09/08 06:47:40;;;;;;;121.78;62.92;;;20.40;92.70;;;;;;4914271;28;95982;-81
2023/09/08 06:50:06;;;;;;;119.28;60.70;;;20.40;93.10;;;;;;4904581;28;96200;-81
2023/09/08 06:52:32;;;;;;;119.25;62.15;;;20.40;92.90;;;;;;4905740;28;95052;-81
2023/09/08 06:54:57;;;;;;;117.03;60.55;;;20.50;93.70;;;;;;4901871;28;99302;-78
2023/09/08 06:57:23;;;;;;;120.32;62.70;;;20.50;92.30;;;;;;4905281;28;97416;-79
2023/09/08 06:59:49;;;;;;;119.78;62.08;;;20.50;93.50;;;;;;4905227;28;96203;-80
2023/09/08 07:02:15;;;;;;;117.10;61.50;;;20.60;93.00;;;;;;4901123;28;98442;-81
2023/09/08 07:04:40;;;;;;;119.85;62.50;;;20.60;93.10;;;;;;4903632;28;98160;-78
2023/09/08 07:07:07;;;;;;;123.55;63.47;;;20.60;93.70;;;;;;4893735;28;96083;-77
2023/09/08 07:09:37;;;;;;;120.13;62.95;;;20.70;93.90;;;;;;4912532;28;96177;-77
2023/09/08 07:12:06;;;;;;;123.78;62.67;;;20.80;94.50;;;;;;4909184;28;97218;-80
2023/09/08 07:14:32;;;;;;;121.57;62.50;;;20.70;93.20;;;;;;4918596;28;95794;-77
2023/09/08 07:16:58;;;;;;;118.22;62.03;;;20.70;92.30;;;;;;4912510;28;98959;-80
2023/09/08 07:19:23;;;;;;;117.75;62.10;;;20.80;93.60;;;;;;4922954;28;95819;-80
2023/09/08 07:21:49;;;;;;;115.13;60.55;;;20.80;93.00;;;;;;4889536;28;97081;-80
2023/09/08 07:24:15;;;;;;;115.75;60.70;;;20.80;91.90;;;;;;4911466;28;94862;-80
2023/09/08 07:26:40;;;;;;;114.32;59.90;;;20.90;91.50;;;;;;4906799;28;94925;-80
2023/09/08 07:29:06;;;;;;;122.55;61.50;;;20.90;91.30;;;;;;4915147;28;95312;-79
2023/09/08 07:31:32;;;;;;;114.32;60.35;;;20.90;92.40;;;;;;4907458;28;94774;-78
2023/09/08 07:33:57;;;;;;;117.45;61.58;;;21.00;91.50;;;;;;4904560;28;95247;-80
2023/09/08 07:36:23;;;;;;;118.50;62.53;;;21.10;93.10;;;;;;4918789;28;96373;-80
2023/09/08 07:38:48;;;;;;;119.15;61.63;;;21.10;92.10;;;;;;4904904;28;94296;-77
2023/09/08 07:41:14;;;;;;;119.40;61.63;;;21.10;91.50;;;;;;4912516;28;94698;-81
2023/09/08 07:43:40;;;;;;;114.70;60.00;;;21.10;92.40;;;;;;4906817;28;99247;-80
2023/09/08 07:46:07;;;;;;;115.63;60.60;;;21.20;91.30;;;;;;4905485;28;97008;-79
2023/09/08 07:48:33;;;;;;;113.97;60.10;;;21.20;91.70;;;;;;4915852;28;97780;-79
2023/09/08 07:51:00;;;;;;;117.00;61.10;;;21.30;91.30;;;;;;4930960;28;97191;-80
2023/09/08 07:53:26;;;;;;;116.63;60.25;;;21.30;91.20;;;;;;4928746;28;96719;-78
2023/09/08 07:55:52;;;;;;;124.93;61.78;;;21.30;91.40;;;;;;4929291;28;94697;-78
2023/09/08 07:58:18;;;;;;;115.32;61.22;;;21.40;92.20;;;;;;4925388;28;95915;-80
2023/09/08 08:00:43;;;;;;;110.45;59.10;;;21.40;91.90;;;;;;4912167;28;94504;-80
2023/09/08 08:03:09;;;;;;;113.57;60.45;;;21.50;92.20;;;;;;4917171;28;93962;-77
2023/09/08 08:05:34;;;;;;;113.95;60.60;;;21.50;91.00;;;;;;4935750;28;95035;-79
2023/09/08 08:08:00;;;;;;;114.97;60.88;;;21.50;91.20;;;;;;4946813;28;94454;-79
2023/09/08 08:10:26;;;;;;;115.50;60.63;;;21.50;91.10;;;;;;4928023;28;97437;-79
2023/09/08 08:12:52;;;;;;;115.03;60.83;;;21.50;90.50;;;;;;4916887;28;97605;-77
2023/09/08 08:15:21;;;;;;;116.43;60.65;;;21.60;91.40;;;;;;4924092;28;96546;-79
2023/09/08 08:17:47;;;;;;;114.53;60.50;;;21.70;91.10;;;;;;4936802;28;94813;-77
2023/09/08 08:20:17;;;;;;;114.68;60.58;;;21.70;91.40;;;;;;4936408;28;100900;-78
2023/09/08 08:22:45;;;;;;;115.80;61.13;;;21.80;91.90;;;;;;4947248;28;94735;-79
2023/09/08 08:25:11;;;;;;;111.30;59.03;;;21.80;91.60;;;;;;4944962;28;98387;-77
2023/09/08 08:27:36;;;;;;;117.90;61.03;;;21.80;90.00;;;;;;4937460;28;94784;-79
2023/09/08 08:30:03;;;;;;;111.75;58.95;;;21.90;92.20;;;;;;4921584;28;95214;-79
2023/09/08 08:32:29;;;;;;;119.60;61.67;;;21.90;90.10;;;;;;4932818;28;95161;-77
2023/09/08 08:34:55;;;;;;;115.70;61.17;;;21.90;91.50;;;;;;4933479;28;96218;-75
2023/09/08 08:37:20;;;;;;;121.38;61.80;;;22.00;92.00;;;;;;4928771;28;96275;-78
2023/09/08 08:39:46;;;;;;;113.47;59.92;;;22.10;93.60;;;;;;4919196;28;95078;-78
2023/09/08 08:42:13;;;;;;;117.60;61.05;;;22.10;91.60;;;;;;4946275;28;94777;-76
2023/09/08 08:44:39;;;;;;;118.40;61.42;;;22.20;93.90;;;;;;4926886;28;95352;-76
2023/09/08 08:47:07;;;;;;;114.07;60.45;;;22.30;94.60;;;;;;4939071;28;97628;-77
2023/09/08 08:49:33;;;;;;;120.22;60.80;;;22.30;92.20;;;;;;4927856;28;94397;-76
2023/09/08 08:52:03;;;;;;;113.13;60.42;;;22.30;93.40;;;;;;4931181;28;97167;-77
2023/09/08 08:54:29;;;;;;;115.38;60.22;;;22.40;93.10;;;;;;4928331;28;94873;-77
2023/09/08 08:56:56;;;;;;;117.88;60.75;;;22.40;92.90;;;;;;4929010;28;99483;-76
2023/09/08 08:59:21;;;;;;;118.45;61.10;;;22.40;93.50;;;;;;4923823;28;96716;-77
2023/09/08 09:01:48;;;;;;;115.18;60.58;;;22.50;93.40;;;;;;4944252;28;94839;-77
2023/09/08 09:04:15;;;;;;;116.18;60.50;;;22.60;92.60;;;;;;4924011;28;95472;-77
2023/09/08 09:06:41;;;;;;;117.30;60.53;;;22.60;91.10;;;;;;4931938;28;94767;-77
2023/09/08 09:09:08;;;;;;;116.00;60.42;;;22.70;92.80;;;;;;4928611;28;96208;-76
2023/09/08 09:11:34;;;;;;;117.53;61.03;;;22.70;93.70;;;;;;4931430;28;96106;-76
2023/09/08 09:13:59;;;;;;;117.97;60.95;;;22.90;93.30;;;;;;4914012;28;98202;-78
2023/09/08 09:16:25;;;;;;;118.10;60.47;;;22.90;92.60;;;;;;4935253;28;97307;-79
2023/09/08 09:18:55;;;;;;;114.15;59.95;;;22.90;92.10;;;;;;4927280;28;95007;-77
2023/09/08 09:21:34;;;;;;;117.90;60.42;;;22.90;90.50;;;;;;4908856;28;96421;-77
2023/09/08 09:24:00;;;;;;;114.30;59.95;;;23.00;92.10;;;;;;4928724;28;98990;-78
2023/09/08 09:26:26;;;;;;;116.60;60.35;;;23.10;92.60;;;;;;4932694;28;96445;-77
2023/09/08 09:28:53;;;;;;;119.68;60.25;;;23.20;94.00;;;;;;4931787;28;94368;-77
2023/09/08 09:31:24;;;;;;;117.82;60.05;;;23.20;93.70;;;;;;4920801;28;94406;-77
2023/09/08 09:34:04;;;;;;;123.13;60.30;;;23.20;93.20;;;;;;4924499;28;94730;-77
2023/09/08 09:36:29;;;;;;;121.45;60.85;;;23.30;91.90;;;;;;4936744;28;94490;-76
2023/09/08 09:39:00;;;;;;;119.25;60.20;;;23.40;92.90;;;;;;4931194;28;94140;-76
2023/09/08 09:41:32;;;;;;;120.30;60.40;;;23.40;92.70;;;;;;4932997;28;95790;-76
2023/09/08 09:43:57;;;;;;;120.03;60.50;;;23.40;91.00;;;;;;4912309;28;95966;-76
2023/09/08 09:46:23;;;;;;;120.32;60.33;;;23.50;92.60;;;;;;4927880;28;95524;-76
2023/09/08 09:48:56;;;;;;;118.50;60.60;;;23.60;92.70;;;;;;4939315;28;95196;-76
2023/09/08 09:51:22;;;;;;;124.05;61.58;;;23.60;92.60;;;;;;4937790;28;98780;-77
2023/09/08 09:53:50;;;;;;;119.03;60.78;;;23.70;93.00;;;;;;4939219;28;95678;-76
2023/09/08 09:56:17;;;;;;;118.07;60.47;;;23.80;92.90;;;;;;4941520;28;99736;-77
2023/09/08 09:58:43;;;;;;;120.43;60.58;;;23.80;93.10;;;;;;4940362;28;96645;-76
2023/09/08 10:01:11;;;;;;;115.93;60.67;;;23.80;92.30;;;;;;4955903;28;94077;-76
2023/09/08 10:03:39;;;;;;;117.13;60.78;;;23.90;91.40;;;;;;4942498;28;99189;-76
2023/09/08 10:06:05;;;;;;;116.53;60.85;;;23.90;92.50;;;;;;4956685;28;95030;-76
2023/09/08 10:08:36;;;;;;;117.03;60.25;;;24.00;92.40;;;;;;4931506;28;95301;-76
2023/09/08 10:11:06;;;;;;;116.30;60.58;;;24.10;91.40;;;;;;4930828;28;94749;-76
2023/09/08 10:13:42;;;;;;;115.20;59.95;;;24.10;91.80;;;;;;4928582;28;95593;-76
2023/09/08 10:16:08;;;;;;;116.68;60.45;;;24.10;88.70;;;;;;4927155;28;98202;-76
2023/09/08 10:18:35;;;;;;;122.30;61.13;;;24.20;91.50;;;;;;4933359;28;94254;-77
2023/09/08 10:21:05;;;;;;;116.10;60.33;;;24.20;91.40;;;;;;4924101;28;96933;-76
2023/09/08 10:23:42;;;;;;;118.07;60.72;;;24.30;91.00;;;;;;4926498;28;95501;-76
2023/09/08 10:26:10;;;;;;;117.00;61.65;;;24.30;91.90;;;;;;4924379;28;97361;-76
2023/09/08 10:28:37;;;;;;;116.43;60.92;;;24.40;92.60;;;;;;4931892;28;94171;-76
2023/09/08 10:31:04;;;;;;;119.72;61.38;;;24.40;92.40;;;;;;4928031;28;95647;-76
2023/09/08 10:33:31;;;;;;;114.57;60.05;;;24.50;92.60;;;;;;4931276;28;94792;-76
2023/09/08 10:35:58;;;;;;;114.70;60.28;;;24.50;89.40;;;;;;4916269;28;96168;-77
2023/09/08 10:38:29;;;;;;;114.63;59.85;;;24.60;91.10;;;;;;4924828;28;96100;-77
2023/09/08 10:41:17;;;;;;;116.28;60.88;;;24.60;90.50;;;;;;4919024;28;95910;-76
2023/09/08 10:43:54;;;;;;;115.47;60.45;;;24.60;91.50;;;;;;4928368;28;95123;-77
2023/09/08 10:46:25;;;;;;;118.03;61.78;;;24.70;89.60;;;;;;4927673;28;94506;-76
2023/09/08 10:48:54;;;;;;;117.40;61.15;;;24.70;92.10;;;;;;4931656;28;95074;-77
2023/09/08 10:51:22;;;;;;;116.05;60.50;;;24.70;91.10;;;;;;4927089;28;94371;-76
2023/09/08 10:53:49;;;;;;;114.45;60.17;;;24.80;90.50;;;;;;4934739;28;95260;-76
2023/09/08 10:56:16;;;;;;;115.93;60.55;;;24.80;90.20;;;;;;4931018;28;93956;-77
2023/09/08 10:58:43;;;;;;;117.10;60.67;;;24.90;90.20;;;;;;4932628;28;95272;-76
2023/09/08 11:01:27;;;;;;;117.45;61.28;;;24.90;88.50;;;;;;4935826;28;95741;-77
2023/09/08 11:03:54;;;;;;;114.18;60.03;;;24.90;91.80;;;;;;4906344;28;97169;-77
2023/09/08 11:06:23;;;;;;;115.93;60.38;;;25.00;89.80;;;;;;4916658;28;96602;-75
2023/09/08 11:08:55;;;;;;;116.70;60.90;;;25.00;91.10;;;;;;4905630;28;94632;-76
2023/09/08 11:11:21;;;;;;;117.93;60.85;;;25.10;91.00;;;;;;4932296;28;95896;-76
2023/09/08 11:13:46;;;;;;;116.43;60.70;;;25.10;90.70;;;;;;4930100;28;95733;-77
2023/09/08 11:16:21;;;;;;;116.32;61.47;;;25.10;89.90;;;;;;4929406;28;94965;-77
2023/09/08 11:18:46;;;;;;;115.18;60.53;;;25.20;90.90;;;;;;4932802;28;96450;-77
2023/09/08 11:21:12;;;;;;;115.85;60.65;;;25.20;90.10;;;;;;4927328;28;96785;-77
2023/09/08 11:23:38;;;;;;;118.63;60.42;;;25.30;90.40;;;;;;4930895;28;94479;-77
2023/09/08 11:26:04;;;;;;;116.00;60.25;;;25.30;90.40;;;;;;4925859;28;95280;-76
2023/09/08 11:28:29;;;;;;;117.13;60.90;;;25.40;90.30;;;;;;4931999;28;95417;-76
2023/09/08 11:30:55;;;;;;;115.30;60.58;;;25.40;89.20;;;;;;4931029;28;94595;-76
2023/09/08 11:33:26;;;;;;;115.88;61.10;;;25.40;89.90;;;;;;4930987;28;94294;-76
2023/09/08 11:35:55;;;;;;;115.25;60.47;;;25.50;90.00;;;;;;4914631;28;99715;-75
2023/09/08 11:38:28;;;;;;;116.30;61.30;;;25.50;87.10;;;;;;4928052;28;97016;-75
2023/09/08 11:40:56;;;;;;;116.72;60.85;;;25.50;89.10;;;;;;4933771;28;96591;-78
2023/09/08 11:43:21;;;;;;;115.60;60.60;;;25.60;89.30;;;;;;4929713;28;96058;-78
2023/09/08 11:45:47;;;;;;;120.05;60.78;;;25.60;87.80;;;;;;4935001;28;94741;-75
2023/09/08 11:48:15;;;;;;;116.20;60.88;;;25.70;88.80;;;;;;4930795;28;95903;-78
2023/09/08 11:50:42;;;;;;;115.85;60.55;;;25.70;88.50;;;;;;4937094;28;94825;-78
2023/09/08 11:53:08;;;;;;;117.45;60.90;;;25.70;84.60;;;;;;4931760;28;99353;-77
2023/09/08 11:55:36;;;;;;;119.55;61.97;;;25.80;85.70;;;;;;4934716;28;95508;-76
2023/09/08 11:58:02;;;;;;;115.25;60.80;;;25.80;86.50;;;;;;4931843;28;94687;-79
2023/09/08 12:00:28;;;;;;;117.22;60.97;;;25.80;86.50;;;;;;4929754;28;95226;-77
2023/09/08 12:02:54;;;;;;;118.55;61.17;;;25.80;85.40;;;;;;4928909;28;100008;-77
2023/09/08 12:05:25;;;;;;;116.72;61.47;;;25.90;85.00;;;;;;4931971;28;98036;-78
2023/09/08 12:07:58;;;;;;;117.78;61.30;;;25.90;85.60;;;;;;4939986;28;96268;-76
2023/09/08 12:10:25;;;;;;;116.45;61.25;;;26.00;86.50;;;;;;4929737;28;94284;-77
2023/09/08 12:12:58;;;;;;;118.05;60.70;;;26.00;84.20;;;;;;4913951;28;96451;-78
2023/09/08 12:15:34;;;;;;;116.90;61.05;;;26.00;83.50;;;;;;4930571;28;98023;-79
2023/09/08 12:18:05;;;;;;;116.80;61.33;;;26.00;85.30;;;;;;4929886;28;99444;-77